createdAt,value
2017-07-17T00:00:42.505Z,20.10
2017-07-17T00:03:09.945Z,20.00
2017-07-17T00:05:37.373Z,20.00
2017-07-17T00:08:04.829Z,19.90
2017-07-17T00:10:32.254Z,19.90
2017-07-17T00:13:00.457Z,19.90
2017-07-17T00:15:27.890Z,19.80
2017-07-17T00:17:56.470Z,19.80
2017-07-17T00:20:23.885Z,19.70
2017-07-17T00:22:51.327Z,19.80
2017-07-17T00:25:18.757Z,19.80
2017-07-17T00:27:46.198Z,19.80
2017-07-17T00:30:14.397Z,19.70
2017-07-17T00:32:41.832Z,19.70
2017-07-17T00:35:10.016Z,19.70
2017-07-17T00:37:37.450Z,19.70
2017-07-17T00:40:04.877Z,19.70
2017-07-17T00:42:32.312Z,19.70
2017-07-17T00:44:59.736Z,19.70
2017-07-17T00:47:27.174Z,19.70
2017-07-17T00:49:54.611Z,19.60
2017-07-17T00:52:22.053Z,19.60
2017-07-17T00:54:49.485Z,19.60
2017-07-17T00:57:16.917Z,19.50
2017-07-17T00:59:44.350Z,19.50
2017-07-17T01:02:11.781Z,19.50
2017-07-17T01:04:39.209Z,19.50
2017-07-17T01:07:06.637Z,19.40
2017-07-17T01:09:34.069Z,19.40
2017-07-17T01:12:01.501Z,19.40
2017-07-17T01:14:28.946Z,19.40
2017-07-17T01:16:56.365Z,19.40
2017-07-17T01:19:23.799Z,19.40
2017-07-17T01:21:51.230Z,19.30
2017-07-17T01:24:18.666Z,19.30
2017-07-17T01:26:46.089Z,19.30
2017-07-17T01:29:13.534Z,19.30
2017-07-17T01:31:40.961Z,19.30
2017-07-17T01:34:08.392Z,19.20
2017-07-17T01:36:35.823Z,19.20
2017-07-17T01:39:04.021Z,19.00
2017-07-17T01:41:31.454Z,19.00
2017-07-17T01:43:58.892Z,18.90
2017-07-17T01:46:26.323Z,18.80
2017-07-17T01:48:53.760Z,18.80
2017-07-17T01:51:21.177Z,18.70
2017-07-17T01:53:49.396Z,18.70
2017-07-17T01:56:16.830Z,18.70
2017-07-17T01:58:44.253Z,18.70
2017-07-17T02:01:11.685Z,18.60
2017-07-17T02:03:39.116Z,18.60
2017-07-17T02:06:06.571Z,18.60
2017-07-17T02:08:34.001Z,18.60
2017-07-17T02:11:01.428Z,18.50
2017-07-17T02:13:28.867Z,18.50
2017-07-17T02:15:56.305Z,18.50
2017-07-17T02:18:23.742Z,18.40
2017-07-17T02:20:51.178Z,18.40
2017-07-17T02:23:19.365Z,18.40
2017-07-17T02:25:46.798Z,18.40
2017-07-17T02:28:14.989Z,18.40
2017-07-17T02:30:42.422Z,18.30
2017-07-17T02:33:09.854Z,18.30
2017-07-17T02:35:37.295Z,18.30
2017-07-17T02:38:04.731Z,18.30
2017-07-17T02:40:32.163Z,18.30
2017-07-17T02:43:00.371Z,18.40
2017-07-17T02:45:27.806Z,18.30
2017-07-17T02:47:55.224Z,18.40
2017-07-17T02:50:22.657Z,18.30
2017-07-17T02:52:50.090Z,18.30
2017-07-17T02:55:17.541Z,18.40
2017-07-17T02:57:44.969Z,18.40
2017-07-17T03:00:13.160Z,18.30
2017-07-17T03:02:40.595Z,18.30
2017-07-17T03:05:08.789Z,18.40
2017-07-17T03:07:36.225Z,18.40
2017-07-17T03:10:04.413Z,18.40
2017-07-17T03:12:32.623Z,18.50
2017-07-17T03:15:00.044Z,18.40
2017-07-17T03:17:28.249Z,18.50
2017-07-17T03:19:55.678Z,18.50
2017-07-17T03:22:23.112Z,18.60
2017-07-17T03:24:50.542Z,18.60
2017-07-17T03:27:17.980Z,18.60
2017-07-17T03:29:45.408Z,18.60
2017-07-17T03:32:12.841Z,18.60
2017-07-17T03:34:40.269Z,18.60
2017-07-17T03:37:07.719Z,18.60
2017-07-17T03:39:35.129Z,18.60
2017-07-17T03:42:03.324Z,18.40
2017-07-17T03:44:30.754Z,18.40
2017-07-17T03:46:58.197Z,18.50
2017-07-17T03:49:25.625Z,18.60
2017-07-17T03:51:53.049Z,18.60
2017-07-17T03:54:20.486Z,18.70
2017-07-17T03:56:48.676Z,18.70
2017-07-17T03:59:16.109Z,18.70
2017-07-17T04:01:43.537Z,18.80
2017-07-17T04:04:10.973Z,18.80
2017-07-17T04:06:38.402Z,18.80
2017-07-17T04:09:05.829Z,18.80
2017-07-17T04:11:34.025Z,18.90
2017-07-17T04:14:01.464Z,18.90
2017-07-17T04:16:28.898Z,18.90
2017-07-17T04:18:56.334Z,18.90
2017-07-17T04:21:23.761Z,19.00
2017-07-17T04:23:51.199Z,19.00
2017-07-17T04:26:18.630Z,19.00
2017-07-17T04:28:46.065Z,19.10
2017-07-17T04:31:13.506Z,19.10
2017-07-17T04:33:40.959Z,19.10
2017-07-17T04:36:08.385Z,19.10
2017-07-17T04:38:35.831Z,19.10
2017-07-17T04:41:04.025Z,19.30
2017-07-17T04:43:31.461Z,19.20
2017-07-17T04:45:58.886Z,19.30
2017-07-17T04:48:26.347Z,19.40
2017-07-17T04:50:53.776Z,19.50
2017-07-17T04:53:21.210Z,19.50
2017-07-17T04:55:48.649Z,19.50
2017-07-17T04:58:16.075Z,19.60
2017-07-17T05:00:43.506Z,19.60
2017-07-17T05:03:10.932Z,19.70
2017-07-17T05:05:38.383Z,19.70
2017-07-17T05:08:05.813Z,19.70
2017-07-17T05:10:33.253Z,19.60
2017-07-17T05:13:00.692Z,19.70
2017-07-17T05:15:28.124Z,19.80
2017-07-17T05:17:55.561Z,19.80
2017-07-17T05:20:23.780Z,19.80
2017-07-17T05:22:51.224Z,19.80
2017-07-17T05:25:18.685Z,19.90
2017-07-17T05:27:46.096Z,20.00
2017-07-17T05:30:14.310Z,20.00
2017-07-17T05:32:41.736Z,20.00
2017-07-17T05:35:09.951Z,20.10
2017-07-17T05:37:37.381Z,20.10
2017-07-17T05:40:04.808Z,20.20
2017-07-17T05:42:32.242Z,20.20
2017-07-17T05:44:59.733Z,20.30
2017-07-17T05:47:27.160Z,20.40
2017-07-17T05:49:54.594Z,20.40
2017-07-17T05:52:22.030Z,20.50
2017-07-17T05:54:49.460Z,20.50
2017-07-17T05:57:16.916Z,20.60
2017-07-17T05:59:44.373Z,20.70
2017-07-17T06:02:12.569Z,20.70
2017-07-17T06:04:39.993Z,20.70
2017-07-17T06:07:07.433Z,20.70
2017-07-17T06:09:34.867Z,20.80
2017-07-17T06:12:02.299Z,20.80
2017-07-17T06:14:29.735Z,20.90
2017-07-17T06:16:57.929Z,21.00
2017-07-17T06:19:25.353Z,20.90
2017-07-17T06:21:52.781Z,21.00
2017-07-17T06:24:20.208Z,21.10
2017-07-17T06:26:47.644Z,21.10
2017-07-17T06:29:15.091Z,21.10
2017-07-17T06:31:42.514Z,21.20
2017-07-17T06:34:09.952Z,21.30
2017-07-17T06:36:37.397Z,21.30
2017-07-17T06:39:04.833Z,21.40
2017-07-17T06:41:32.266Z,21.60
2017-07-17T06:44:00.464Z,21.70
2017-07-17T06:46:27.896Z,21.70
2017-07-17T06:48:56.093Z,21.90
2017-07-17T06:51:23.529Z,21.80
2017-07-17T06:53:51.732Z,21.90
2017-07-17T06:56:19.169Z,21.90
2017-07-17T06:58:47.365Z,22.00
2017-07-17T07:01:14.787Z,22.00
2017-07-17T07:03:43.010Z,22.10
2017-07-17T07:06:10.429Z,22.10
2017-07-17T07:08:38.632Z,22.20
2017-07-17T07:11:06.061Z,22.20
2017-07-17T07:13:34.260Z,22.30
2017-07-17T07:16:01.691Z,22.30
2017-07-17T07:18:29.889Z,22.60
2017-07-17T07:20:57.318Z,22.50
2017-07-17T07:23:25.516Z,22.70
2017-07-17T07:25:52.950Z,22.70
2017-07-17T07:28:21.157Z,22.90
2017-07-17T07:30:48.581Z,22.80
2017-07-17T07:33:16.016Z,22.90
2017-07-17T07:35:43.464Z,23.00
2017-07-17T07:38:10.901Z,23.00
2017-07-17T07:40:38.333Z,23.10
2017-07-17T07:43:05.762Z,23.10
2017-07-17T07:45:33.957Z,23.20
2017-07-17T07:48:01.384Z,23.20
2017-07-17T07:50:28.812Z,23.70
2017-07-17T07:52:56.252Z,23.90
2017-07-17T07:55:23.695Z,24.00
2017-07-17T07:57:53.222Z,24.30
2017-07-17T08:00:20.770Z,24.50
2017-07-17T08:02:48.237Z,24.90
2017-07-17T08:05:15.669Z,25.00
2017-07-17T08:07:43.101Z,24.70
2017-07-17T08:10:10.537Z,25.10
2017-07-17T08:12:38.006Z,25.40
2017-07-17T08:15:05.442Z,25.40
2017-07-17T08:17:32.871Z,25.60
2017-07-17T08:20:00.301Z,25.60
2017-07-17T08:22:27.730Z,25.50
2017-07-17T08:24:55.160Z,25.50
2017-07-17T08:27:22.594Z,25.70
2017-07-17T08:29:50.048Z,25.80
2017-07-17T08:32:17.468Z,25.90
2017-07-17T08:34:45.310Z,26.10
2017-07-17T08:37:13.640Z,27.00
2017-07-17T08:39:41.071Z,26.90
2017-07-17T08:42:08.527Z,26.70
2017-07-17T08:44:36.937Z,27.40
2017-07-17T08:47:04.476Z,27.40
2017-07-17T08:49:31.917Z,27.60
2017-07-17T08:52:00.109Z,27.70
2017-07-17T08:54:27.583Z,27.70
2017-07-17T08:56:55.028Z,27.10
2017-07-17T08:59:22.454Z,27.40
2017-07-17T09:01:49.886Z,27.60
2017-07-17T09:04:17.316Z,27.90
2017-07-17T09:06:44.841Z,28.20
2017-07-17T09:09:13.041Z,28.40
2017-07-17T09:11:40.470Z,28.40
2017-07-17T09:14:08.660Z,28.50
2017-07-17T09:16:36.104Z,28.40
2017-07-17T09:19:04.297Z,28.80
2017-07-17T09:21:31.726Z,28.80
2017-07-17T09:23:59.162Z,29.00
2017-07-17T09:26:26.594Z,29.10
2017-07-17T09:28:54.020Z,29.10
2017-07-17T09:31:21.453Z,29.10
2017-07-17T09:33:48.956Z,29.10
2017-07-17T09:36:16.468Z,28.80
2017-07-17T09:38:43.902Z,29.00
2017-07-17T09:41:11.328Z,29.40
2017-07-17T09:43:38.766Z,29.70
2017-07-17T09:46:06.199Z,29.90
2017-07-17T09:48:33.668Z,29.70
2017-07-17T09:51:01.096Z,29.70
2017-07-17T09:53:28.529Z,29.90
2017-07-17T09:55:55.966Z,30.10
2017-07-17T09:58:23.395Z,30.20
2017-07-17T10:00:50.851Z,30.10
2017-07-17T10:03:19.042Z,29.80
2017-07-17T10:05:46.482Z,29.80
2017-07-17T10:08:17.053Z,29.80
2017-07-17T10:10:44.485Z,29.90
2017-07-17T10:13:11.925Z,29.90
2017-07-17T10:15:39.364Z,30.10
2017-07-17T10:18:07.562Z,30.00
2017-07-17T10:20:34.992Z,29.90
2017-07-17T10:23:03.188Z,30.30
2017-07-17T10:25:30.628Z,30.30
2017-07-17T10:27:58.833Z,30.20
2017-07-17T10:30:26.274Z,30.20
2017-07-17T10:32:53.709Z,30.30
2017-07-17T10:35:21.173Z,30.30
2017-07-17T10:37:49.389Z,30.80
2017-07-17T10:40:16.825Z,30.80
2017-07-17T10:42:44.258Z,31.00
2017-07-17T10:45:11.694Z,31.20
2017-07-17T10:47:39.130Z,30.90
2017-07-17T10:50:06.565Z,30.90
2017-07-17T10:52:34.001Z,30.70
2017-07-17T10:55:02.201Z,29.70
2017-07-17T10:57:29.629Z,29.70
2017-07-17T10:59:57.821Z,29.30
2017-07-17T11:02:25.252Z,29.20
2017-07-17T11:04:53.446Z,29.20
2017-07-17T11:07:20.882Z,29.10
2017-07-17T11:09:49.072Z,29.30
2017-07-17T11:12:16.511Z,29.30
2017-07-17T11:14:43.938Z,29.30
2017-07-17T11:17:11.384Z,29.40
2017-07-17T11:19:38.816Z,29.40
2017-07-17T11:22:06.265Z,29.30
2017-07-17T11:24:33.696Z,29.00
2017-07-17T11:27:01.925Z,29.00
2017-07-17T11:29:29.416Z,28.90
2017-07-17T11:31:56.849Z,29.20
2017-07-17T11:34:24.282Z,29.30
2017-07-17T11:36:53.791Z,29.50
2017-07-17T11:39:21.227Z,29.50
2017-07-17T11:41:48.651Z,29.40
2017-07-17T11:44:16.086Z,29.40
2017-07-17T11:56:55.980Z,28.90
2017-07-17T11:59:23.416Z,28.80
2017-07-17T12:01:50.836Z,28.50
2017-07-17T12:04:19.040Z,28.50
2017-07-17T12:06:46.468Z,28.40
2017-07-17T12:09:13.900Z,28.60
2017-07-17T12:11:41.433Z,28.70
2017-07-17T12:14:15.514Z,28.90
2017-07-17T12:16:42.936Z,28.80
2017-07-17T12:19:10.376Z,28.90
2017-07-17T12:21:43.633Z,29.10
2017-07-17T12:24:11.829Z,28.80
2017-07-17T12:26:39.255Z,28.70
2017-07-17T12:29:06.688Z,28.90
2017-07-17T12:31:34.883Z,29.00
2017-07-17T12:34:02.310Z,29.00
2017-07-17T12:36:29.741Z,29.10
2017-07-17T12:38:57.171Z,29.10
2017-07-17T12:41:24.612Z,29.30
2017-07-17T12:43:52.045Z,29.30
2017-07-17T12:46:19.497Z,29.30
2017-07-17T12:48:46.904Z,29.50
2017-07-17T12:51:14.353Z,29.40
2017-07-17T12:53:41.778Z,29.40
2017-07-17T12:56:09.985Z,29.30
2017-07-17T12:58:37.433Z,29.30
2017-07-17T13:01:05.670Z,29.40
2017-07-17T13:03:33.096Z,29.50
2017-07-17T13:06:00.525Z,29.50
2017-07-17T13:08:27.953Z,29.40
2017-07-17T13:10:56.164Z,29.50
2017-07-17T13:13:23.591Z,29.50
2017-07-17T13:15:51.779Z,29.50
2017-07-17T13:18:19.218Z,29.50
2017-07-17T13:20:47.409Z,29.60
2017-07-17T13:23:14.836Z,29.60
2017-07-17T13:25:42.292Z,29.70
2017-07-17T13:28:09.735Z,29.60
2017-07-17T13:30:37.166Z,29.60
2017-07-17T13:33:04.625Z,29.70
2017-07-17T13:35:32.052Z,29.70
2017-07-17T13:37:59.481Z,29.70
2017-07-17T13:40:26.950Z,29.60
2017-07-17T13:42:55.146Z,29.30
2017-07-17T13:45:22.616Z,29.30
2017-07-17T13:47:50.053Z,29.20
2017-07-17T13:50:17.485Z,29.10
2017-07-17T13:52:44.916Z,29.00
2017-07-17T13:55:12.354Z,29.00
2017-07-17T13:57:39.780Z,29.10
2017-07-17T14:00:07.236Z,29.10
2017-07-17T14:02:34.681Z,29.10
2017-07-17T14:05:02.088Z,29.20
2017-07-17T14:07:29.527Z,29.30
2017-07-17T14:09:56.969Z,29.40
2017-07-17T14:12:24.392Z,29.40
2017-07-17T14:14:51.832Z,29.40
2017-07-17T14:17:19.264Z,29.50
2017-07-17T14:19:46.716Z,29.50
2017-07-17T14:22:14.146Z,29.50
2017-07-17T14:24:41.573Z,29.50
2017-07-17T14:27:09.023Z,29.30
2017-07-17T14:29:36.444Z,29.40
2017-07-17T14:32:03.881Z,29.30
2017-07-17T14:34:31.317Z,29.30
2017-07-17T14:36:59.528Z,29.30
2017-07-17T14:39:26.958Z,29.30
2017-07-17T14:41:54.384Z,29.20
2017-07-17T14:44:21.962Z,28.90
2017-07-17T14:46:50.161Z,28.50
2017-07-17T14:49:17.608Z,28.40
2017-07-17T14:51:45.812Z,28.50
2017-07-17T14:54:13.257Z,28.50
2017-07-17T14:56:40.687Z,28.30
2017-07-17T14:59:08.104Z,28.30
2017-07-17T15:01:35.577Z,28.30
2017-07-17T15:04:03.029Z,28.20
2017-07-17T15:06:30.520Z,28.10
2017-07-17T15:08:57.952Z,28.10
2017-07-17T15:11:25.393Z,28.00
2017-07-17T15:13:54.824Z,28.00
2017-07-17T15:16:23.029Z,27.90
2017-07-17T15:18:50.497Z,27.90
2017-07-17T15:21:17.912Z,27.80
2017-07-17T15:23:45.550Z,27.80
2017-07-17T15:26:12.973Z,27.80
2017-07-17T15:28:40.434Z,27.80
2017-07-17T15:31:07.861Z,27.70
2017-07-17T15:33:35.304Z,27.60
2017-07-17T15:36:04.489Z,27.50
2017-07-17T15:38:32.700Z,27.60
2017-07-17T15:41:00.128Z,27.60
2017-07-17T15:43:27.564Z,27.50
2017-07-17T15:45:54.997Z,27.40
2017-07-17T15:48:22.457Z,27.30
2017-07-17T15:50:49.912Z,27.30
2017-07-17T15:53:17.355Z,27.30
2017-07-17T15:55:44.793Z,27.30
2017-07-17T15:58:12.270Z,27.30
2017-07-17T16:00:40.832Z,27.30
2017-07-17T16:03:08.302Z,27.30
2017-07-17T16:05:35.724Z,27.20
2017-07-17T16:08:04.009Z,27.10
2017-07-17T16:10:31.449Z,27.10
2017-07-17T16:12:59.646Z,27.10
2017-07-17T16:15:27.097Z,27.10
2017-07-17T16:17:54.525Z,27.20
2017-07-17T16:20:21.961Z,27.10
2017-07-17T16:22:49.456Z,27.00
2017-07-17T16:25:16.884Z,27.10
2017-07-17T16:27:44.316Z,27.10
2017-07-17T16:30:11.757Z,27.00
2017-07-17T16:32:39.188Z,27.00
2017-07-17T16:35:07.386Z,27.00
2017-07-17T16:37:34.816Z,27.00
2017-07-17T16:40:03.011Z,27.00
2017-07-17T16:42:30.446Z,27.00
2017-07-17T16:44:57.881Z,27.00
2017-07-17T16:47:25.316Z,27.00
2017-07-17T16:49:52.814Z,26.90
2017-07-17T16:52:20.257Z,26.80
2017-07-17T16:54:47.676Z,26.80
2017-07-17T16:57:15.128Z,26.80
2017-07-17T16:59:42.561Z,26.80
2017-07-17T17:02:09.994Z,26.70
2017-07-17T17:04:37.424Z,26.70
2017-07-17T17:07:04.860Z,26.70
2017-07-17T17:09:32.297Z,26.70
2017-07-17T17:11:59.733Z,26.70
2017-07-17T17:14:27.939Z,26.70
2017-07-17T17:16:55.377Z,26.60
2017-07-17T17:19:22.819Z,26.60
2017-07-17T17:21:50.238Z,26.60
2017-07-17T17:24:17.698Z,26.60
2017-07-17T17:26:45.126Z,26.60
2017-07-17T17:29:12.656Z,26.50
2017-07-17T17:31:40.095Z,26.50
2017-07-17T17:34:07.529Z,26.50
2017-07-17T17:36:34.969Z,26.50
2017-07-17T17:39:02.412Z,26.40
2017-07-17T17:41:29.836Z,26.40
2017-07-17T17:43:57.269Z,26.40
2017-07-17T17:46:24.724Z,26.40
2017-07-17T17:48:52.162Z,26.40
2017-07-17T17:51:21.709Z,26.30
2017-07-17T17:53:49.120Z,26.40
2017-07-17T17:56:16.566Z,26.40
2017-07-17T17:58:44.042Z,26.40
2017-07-17T18:01:11.456Z,26.30
2017-07-17T18:03:38.887Z,26.30
2017-07-17T18:06:06.330Z,26.20
2017-07-17T18:08:33.753Z,26.10
2017-07-17T18:11:01.244Z,26.10
2017-07-17T18:13:29.851Z,26.00
2017-07-17T18:15:57.273Z,26.00
2017-07-17T18:18:24.711Z,25.90
2017-07-17T18:20:52.146Z,25.90
2017-07-17T18:23:19.573Z,25.90
2017-07-17T18:25:47.066Z,25.80
2017-07-17T18:28:14.493Z,25.80
2017-07-17T18:30:41.952Z,25.70
2017-07-17T18:33:09.393Z,25.70
2017-07-17T18:35:37.139Z,25.70
2017-07-17T18:38:04.557Z,25.70
2017-07-17T18:40:33.852Z,25.60
2017-07-17T18:43:01.445Z,25.60
2017-07-17T18:45:28.884Z,25.50
2017-07-17T18:47:56.355Z,25.50
2017-07-17T18:50:23.793Z,25.40
2017-07-17T18:52:52.217Z,25.50
2017-07-17T18:55:20.410Z,25.30
2017-07-17T18:57:47.852Z,25.30
2017-07-17T19:00:15.279Z,25.20
2017-07-17T19:02:42.712Z,25.20
2017-07-17T19:05:10.139Z,25.20
2017-07-17T19:07:37.576Z,25.20
2017-07-17T19:10:05.786Z,25.10
2017-07-17T19:12:33.226Z,25.00
2017-07-17T19:15:00.654Z,24.90
2017-07-17T19:17:28.092Z,24.90
2017-07-17T19:19:55.523Z,24.90
2017-07-17T19:22:23.064Z,24.80
2017-07-17T19:24:50.469Z,24.80
2017-07-17T19:27:17.916Z,24.70
2017-07-17T19:29:45.408Z,24.60
2017-07-17T19:32:18.775Z,24.60
2017-07-17T19:34:46.216Z,24.60
2017-07-17T19:37:13.644Z,24.60
2017-07-17T19:39:41.072Z,24.50
2017-07-17T19:42:09.270Z,24.40
2017-07-17T19:44:36.697Z,24.40
2017-07-17T19:47:04.901Z,24.20
2017-07-17T19:49:32.330Z,24.20
2017-07-17T19:52:00.532Z,24.10
2017-07-17T19:54:27.957Z,24.10
2017-07-17T19:56:55.371Z,24.00
2017-07-17T19:59:22.836Z,23.90
2017-07-17T20:01:50.253Z,23.90
2017-07-17T20:04:17.684Z,23.90
2017-07-17T20:06:45.100Z,23.70
2017-07-17T20:09:12.544Z,23.70
2017-07-17T20:11:39.959Z,23.60
2017-07-17T20:14:08.181Z,23.60
2017-07-17T20:16:35.613Z,23.50
2017-07-17T20:19:03.041Z,23.50
2017-07-17T20:21:30.464Z,23.40
2017-07-17T20:23:57.917Z,23.40
2017-07-17T20:26:25.345Z,23.40
2017-07-17T20:28:52.777Z,23.40
2017-07-17T20:31:20.977Z,23.30
2017-07-17T20:33:48.398Z,23.30
2017-07-17T20:36:15.835Z,23.30
2017-07-17T20:38:43.263Z,23.30
2017-07-17T20:41:10.702Z,23.20
2017-07-17T20:43:38.125Z,23.20
2017-07-17T20:46:06.335Z,23.10
2017-07-17T20:48:33.767Z,23.10
2017-07-17T20:51:01.965Z,22.90
2017-07-17T20:53:29.392Z,22.80
2017-07-17T20:55:56.820Z,22.80
2017-07-17T20:58:24.257Z,22.60
2017-07-17T21:00:51.702Z,22.60
2017-07-17T21:03:19.128Z,22.50
2017-07-17T21:05:46.556Z,22.50
2017-07-17T21:08:13.988Z,22.50
2017-07-17T21:10:41.415Z,22.40
2017-07-17T21:13:08.844Z,22.30
2017-07-17T21:15:37.062Z,22.30
2017-07-17T21:18:04.489Z,22.30
2017-07-17T21:20:31.914Z,22.20
2017-07-17T21:22:59.350Z,22.20
2017-07-17T21:25:26.780Z,22.20
2017-07-17T21:27:54.212Z,22.20
2017-07-17T21:30:22.407Z,22.20
2017-07-17T21:32:49.832Z,22.10
2017-07-17T21:35:18.040Z,22.00
2017-07-17T21:37:45.469Z,22.00
2017-07-17T21:40:13.669Z,22.00
2017-07-17T21:42:41.103Z,21.90
2017-07-17T21:45:09.296Z,21.90
2017-07-17T21:47:36.732Z,21.90
2017-07-17T21:50:04.928Z,21.80
2017-07-17T21:52:32.366Z,21.80
2017-07-17T21:55:00.557Z,21.80
2017-07-17T21:57:27.992Z,21.80
2017-07-17T21:59:56.192Z,21.70
2017-07-17T22:02:23.677Z,21.70
2017-07-17T22:04:51.109Z,21.70
2017-07-17T22:07:18.537Z,21.70
2017-07-17T22:09:46.745Z,21.60
2017-07-17T22:12:14.164Z,21.60
2017-07-17T22:14:43.360Z,21.50
2017-07-17T22:17:11.552Z,21.40
2017-07-17T22:19:38.984Z,21.40
2017-07-17T22:22:06.411Z,21.40
2017-07-17T22:24:33.851Z,21.30
2017-07-17T22:27:01.272Z,21.30
2017-07-17T22:29:29.479Z,21.10
2017-07-17T22:31:56.912Z,21.10
2017-07-17T22:34:24.345Z,21.20
2017-07-17T22:36:52.548Z,21.00
2017-07-17T22:39:19.973Z,21.00
2017-07-17T22:41:47.402Z,21.00
2017-07-17T22:44:14.825Z,21.00
2017-07-17T22:46:42.257Z,21.00
2017-07-17T22:49:10.455Z,20.90
2017-07-17T22:51:37.884Z,20.90
2017-07-17T22:54:06.081Z,20.90
2017-07-17T22:56:33.512Z,20.90
2017-07-17T22:59:01.696Z,20.80
2017-07-17T23:01:29.133Z,20.80
2017-07-17T23:03:56.556Z,20.80
2017-07-17T23:06:23.989Z,20.80
2017-07-17T23:08:51.420Z,20.80
2017-07-17T23:11:19.621Z,20.70
2017-07-17T23:13:47.050Z,20.70
2017-07-17T23:16:15.258Z,20.70
2017-07-17T23:18:42.686Z,20.60
2017-07-17T23:21:10.888Z,20.50
2017-07-17T23:23:38.313Z,20.50
2017-07-17T23:26:06.529Z,20.50
2017-07-17T23:28:33.957Z,20.50
2017-07-17T23:31:01.388Z,20.60
2017-07-17T23:33:28.824Z,20.60
2017-07-17T23:35:56.265Z,20.60
2017-07-17T23:38:23.692Z,20.60
2017-07-17T23:40:51.116Z,20.50
2017-07-17T23:43:19.316Z,20.50
2017-07-17T23:45:46.744Z,20.50
2017-07-17T23:48:14.952Z,20.40
2017-07-17T23:50:42.381Z,20.40
2017-07-17T23:53:10.580Z,20.40
2017-07-17T23:55:38.009Z,20.40
2017-07-17T23:58:06.214Z,20.40
